createdAt,value
2022-12-13T00:00:55.911Z,100355.88
2022-12-13T00:03:24.493Z,100343.88
2022-12-13T00:05:50.815Z,100356.72
2022-12-13T00:08:17.329Z,100352.25
2022-12-13T00:10:43.570Z,100346.75
2022-12-13T00:13:10.003Z,100355.31
2022-12-13T00:15:36.111Z,100368.13
2022-12-13T00:18:02.928Z,100360.44
2022-12-13T00:20:29.512Z,100358.34
2022-12-13T00:22:56.780Z,100362.44
2022-12-13T00:25:22.862Z,100355.69
2022-12-13T00:27:49.571Z,100363.97
2022-12-13T00:30:15.740Z,100366.63
2022-12-13T00:32:42.073Z,100363.78
2022-12-13T00:35:08.312Z,100365.19
2022-12-13T00:37:34.715Z,100380.97
2022-12-13T00:40:00.884Z,100366.13
2022-12-13T00:42:27.361Z,100358.25
2022-12-13T00:44:53.691Z,100363.00
2022-12-13T00:47:21.539Z,100359.38
2022-12-13T00:49:47.757Z,100357.28
2022-12-13T00:52:14.231Z,100366.88
2022-12-13T00:54:40.351Z,100367.53
2022-12-13T00:57:06.763Z,100374.88
2022-12-13T00:59:32.961Z,100368.97
2022-12-13T01:01:59.363Z,100374.09
2022-12-13T01:04:25.557Z,100381.69
2022-12-13T01:06:53.868Z,100385.22
2022-12-13T01:09:26.662Z,100383.25
2022-12-13T01:11:58.594Z,100378.22
2022-12-13T01:14:25.261Z,100379.22
2022-12-13T01:16:55.011Z,100392.81
2022-12-13T01:19:22.823Z,100386.56
2022-12-13T01:21:49.583Z,100383.41
2022-12-13T01:24:19.855Z,100382.81
2022-12-13T01:26:46.936Z,100380.28
2022-12-13T01:29:13.452Z,100381.50
2022-12-13T01:31:40.951Z,100380.81
2022-12-13T01:34:12.121Z,100376.34
2022-12-13T01:36:40.885Z,100387.69
2022-12-13T01:39:14.477Z,100379.09
2022-12-13T01:41:58.519Z,100383.63
2022-12-13T01:44:55.964Z,100387.06
2022-12-13T01:47:27.196Z,100385.75
2022-12-13T01:49:57.988Z,100382.00
2022-12-13T01:52:29.622Z,100385.59
2022-12-13T01:55:03.627Z,100382.50
2022-12-13T01:57:33.052Z,100386.34
2022-12-13T01:59:59.567Z,100383.84
2022-12-13T02:02:26.065Z,100387.66
2022-12-13T02:05:08.832Z,100397.16
2022-12-13T02:07:37.603Z,100388.13
2022-12-13T02:10:06.343Z,100387.13
2022-12-13T02:12:35.541Z,100385.44
2022-12-13T02:15:11.059Z,100384.16
2022-12-13T02:18:04.142Z,100378.09
2022-12-13T02:20:54.540Z,100374.47
2022-12-13T02:23:23.824Z,100368.50
2022-12-13T02:26:16.691Z,100364.47
2022-12-13T02:29:01.676Z,100366.22
2022-12-13T02:31:42.754Z,100363.06
2022-12-13T02:34:17.632Z,100367.84
2022-12-13T02:37:17.877Z,100374.97
2022-12-13T02:39:59.910Z,100368.03
2022-12-13T02:42:34.330Z,100367.47
2022-12-13T02:45:20.549Z,100369.66
2022-12-13T02:47:51.454Z,100366.69
2022-12-13T02:50:20.231Z,100364.41
2022-12-13T02:52:47.593Z,100366.50
2022-12-13T02:55:16.239Z,100367.91
2022-12-13T02:57:44.542Z,100357.28
2022-12-13T03:00:22.697Z,100371.00
2022-12-13T03:03:10.847Z,100371.38
2022-12-13T03:06:26.149Z,100362.13
2022-12-13T03:09:11.040Z,100346.72
2022-12-13T03:12:16.390Z,100369.25
2022-12-13T03:15:01.534Z,100356.72
2022-12-13T03:17:33.147Z,100363.47
2022-12-13T03:19:59.258Z,100362.72
2022-12-13T03:22:25.670Z,100368.03
2022-12-13T03:24:52.201Z,100354.25
2022-12-13T03:27:18.663Z,100352.63
2022-12-13T03:29:44.793Z,100362.44
2022-12-13T03:32:11.136Z,100362.91
2022-12-13T03:34:44.910Z,100365.75
2022-12-13T03:37:12.244Z,100356.91
2022-12-13T03:39:38.498Z,100354.06
2022-12-13T03:42:04.934Z,100355.50
2022-12-13T03:44:31.257Z,100357.47
2022-12-13T03:46:58.179Z,100349.59
2022-12-13T03:49:27.155Z,100351.88
2022-12-13T03:52:01.642Z,100356.34
2022-12-13T03:54:27.994Z,100353.22
2022-12-13T03:56:54.419Z,100349.22
2022-12-13T03:59:20.518Z,100360.81
2022-12-13T04:01:47.730Z,100348.06
2022-12-13T04:04:13.859Z,100342.47
2022-12-13T04:06:40.542Z,100341.22
2022-12-13T04:09:06.583Z,100328.56
2022-12-13T04:11:51.720Z,100344.25
2022-12-13T04:14:22.306Z,100341.22
2022-12-13T04:16:51.498Z,100339.41
2022-12-13T04:19:23.455Z,100334.19
2022-12-13T04:21:54.114Z,100338.06
2022-12-13T04:24:31.229Z,100341.13
2022-12-13T04:27:00.800Z,100331.78
2022-12-13T04:29:28.157Z,100340.06
2022-12-13T04:32:05.765Z,100340.06
2022-12-13T04:34:52.323Z,100338.63
2022-12-13T04:37:29.193Z,100334.03
2022-12-13T04:40:00.748Z,100334.16
2022-12-13T04:42:28.078Z,100334.47
2022-12-13T04:44:54.396Z,100337.97
2022-12-13T04:47:20.982Z,100327.22
2022-12-13T04:49:47.360Z,100341.88
2022-12-13T04:52:13.829Z,100344.84
2022-12-13T04:54:55.310Z,100334.38
2022-12-13T04:57:22.962Z,100340.66
2022-12-13T04:59:49.411Z,100340.06
2022-12-13T05:02:23.426Z,100341.97
2022-12-13T05:04:53.447Z,100338.75
2022-12-13T05:07:21.340Z,100347.31
2022-12-13T05:09:47.523Z,100354.16
2022-12-13T05:12:21.986Z,100354.91
2022-12-13T05:14:50.889Z,100358.16
2022-12-13T05:17:17.746Z,100363.69
2022-12-13T05:19:44.384Z,100358.72
2022-12-13T05:22:19.435Z,100357.19
2022-12-13T05:24:47.492Z,100361.69
2022-12-13T05:27:25.676Z,100354.53
2022-12-13T05:30:03.834Z,100360.16
2022-12-13T05:32:42.700Z,100343.28
2022-12-13T05:35:12.927Z,100360.16
2022-12-13T05:37:39.643Z,100350.72
2022-12-13T05:40:07.093Z,100354.34
2022-12-13T05:42:33.582Z,100351.97
2022-12-13T05:44:59.932Z,100356.22
2022-12-13T05:47:26.588Z,100351.66
2022-12-13T05:49:52.885Z,100356.78
2022-12-13T05:52:21.323Z,100357.56
2022-12-13T05:54:48.182Z,100353.25
2022-12-13T05:57:14.761Z,100355.00
2022-12-13T05:59:41.062Z,100354.22
2022-12-13T06:02:07.982Z,100352.22
2022-12-13T06:07:19.137Z,100357.91
2022-12-13T06:09:45.271Z,100351.09
2022-12-13T06:12:31.266Z,100360.50
2022-12-13T06:15:00.953Z,100356.31
2022-12-13T06:17:32.501Z,100358.03
2022-12-13T06:19:59.028Z,100352.78
2022-12-13T06:22:25.995Z,100355.66
2022-12-13T06:24:52.556Z,100362.25
2022-12-13T06:27:20.995Z,100357.97
2022-12-13T06:29:47.498Z,100365.28
2022-12-13T06:32:14.079Z,100358.53
2022-12-13T06:34:40.268Z,100373.94
2022-12-13T06:37:10.028Z,100367.47
2022-12-13T06:39:36.288Z,100366.53
2022-12-13T06:42:07.950Z,100371.88
2022-12-13T06:44:35.023Z,100368.63
2022-12-13T06:47:09.988Z,100370.44
2022-12-13T06:49:39.886Z,100370.06
2022-12-13T06:52:09.259Z,100372.16
2022-12-13T06:54:35.479Z,100366.53
2022-12-13T06:57:01.895Z,100380.59
2022-12-13T06:59:28.367Z,100367.97
2022-12-13T07:01:54.803Z,100384.22
2022-12-13T07:04:31.467Z,100388.41
2022-12-13T07:07:01.593Z,100397.75
2022-12-13T07:09:31.913Z,100395.84
2022-12-13T07:11:59.205Z,100399.25
2022-12-13T07:14:26.153Z,100393.00
2022-12-13T07:16:56.678Z,100403.75
2022-12-13T07:19:27.528Z,100401.38
2022-12-13T07:22:04.976Z,100398.59
2022-12-13T07:24:31.687Z,100405.06
2022-12-13T07:26:58.168Z,100406.03
2022-12-13T07:29:24.243Z,100408.69
2022-12-13T07:31:50.778Z,100417.94
2022-12-13T07:34:17.138Z,100418.50
2022-12-13T07:36:43.669Z,100417.44
2022-12-13T07:39:10.085Z,100415.72
2022-12-13T07:41:36.632Z,100419.72
2022-12-13T07:44:02.884Z,100426.13
2022-12-13T07:46:33.406Z,100421.16
2022-12-13T07:49:04.142Z,100430.09
2022-12-13T07:51:33.575Z,100426.41
2022-12-13T07:54:00.139Z,100431.97
2022-12-13T07:56:26.875Z,100431.16
2022-12-13T07:58:55.618Z,100428.03
2022-12-13T08:01:22.468Z,100436.31
2022-12-13T08:03:48.635Z,100422.09
2022-12-13T08:06:15.165Z,100433.53
2022-12-13T08:08:41.714Z,100434.09
2022-12-13T08:11:10.909Z,100433.31
2022-12-13T08:13:38.459Z,100435.72
2022-12-13T08:16:26.724Z,100442.28
2022-12-13T08:19:00.983Z,100453.50
2022-12-13T08:21:54.746Z,100442.59
2022-12-13T08:24:27.950Z,100439.25
2022-12-13T08:27:00.162Z,100434.13
2022-12-13T08:29:33.158Z,100442.97
2022-12-13T08:32:04.578Z,100440.22
2022-12-13T08:34:30.952Z,100441.34
2022-12-13T08:37:02.182Z,100441.38
2022-12-13T08:39:34.523Z,100429.47
2022-12-13T08:42:15.337Z,100449.66
2022-12-13T08:44:45.951Z,100443.69
2022-12-13T08:47:12.824Z,100449.19
2022-12-13T08:49:50.142Z,100452.25
2022-12-13T08:52:16.611Z,100445.91
2022-12-13T08:54:44.029Z,100457.31
2022-12-13T08:57:10.584Z,100450.22
2022-12-13T08:59:36.717Z,100462.59
2022-12-13T09:02:05.323Z,100470.00
2022-12-13T09:04:32.434Z,100462.78
2022-12-13T09:07:01.648Z,100465.59
2022-12-13T09:09:29.111Z,100469.75
2022-12-13T09:11:59.539Z,100470.00
2022-12-13T09:14:33.840Z,100467.69
2022-12-13T09:17:04.192Z,100473.94
2022-12-13T09:19:37.203Z,100470.81
2022-12-13T09:22:05.165Z,100459.84
2022-12-13T09:24:36.111Z,100475.72
2022-12-13T09:27:09.484Z,100466.38
2022-12-13T09:29:37.728Z,100460.56
2022-12-13T09:32:04.563Z,100468.09
2022-12-13T09:34:32.228Z,100467.91
2022-12-13T09:37:01.657Z,100462.16
2022-12-13T09:39:28.809Z,100462.16
2022-12-13T09:42:00.741Z,100465.38
2022-12-13T09:44:53.639Z,100462.22
2022-12-13T09:47:39.020Z,100454.66
2022-12-13T09:50:25.184Z,100465.03
2022-12-13T09:52:52.570Z,100461.50
2022-12-13T09:55:41.042Z,100464.75
2022-12-13T09:58:19.622Z,100461.75
2022-12-13T10:00:49.145Z,100459.03
2022-12-13T10:03:17.889Z,100457.53
2022-12-13T10:05:57.612Z,100464.75
2022-12-13T10:08:48.098Z,100455.81
2022-12-13T10:11:16.246Z,100456.72
2022-12-13T10:13:45.565Z,100457.03
2022-12-13T10:16:23.291Z,100452.69
2022-12-13T10:18:50.764Z,100461.47
2022-12-13T10:21:27.168Z,100447.44
2022-12-13T10:26:50.219Z,100453.28
2022-12-13T10:29:16.740Z,100456.88
2022-12-13T10:31:51.447Z,100460.09
2022-12-13T10:34:27.932Z,100460.75
2022-12-13T10:36:54.172Z,100460.16
2022-12-13T10:39:41.697Z,100456.13
2022-12-13T10:42:22.898Z,100451.34
2022-12-13T10:45:14.719Z,100455.41
2022-12-13T10:47:45.112Z,100461.03
2022-12-13T10:50:25.296Z,100454.94
2022-12-13T10:52:52.405Z,100455.25
2022-12-13T10:55:31.968Z,100458.84
2022-12-13T10:58:17.609Z,100460.44
2022-12-13T11:00:46.416Z,100455.13
2022-12-13T11:03:30.162Z,100460.81
2022-12-13T11:06:06.735Z,100463.81
2022-12-13T11:08:33.314Z,100458.28
2022-12-13T11:11:02.345Z,100451.22
2022-12-13T11:13:52.093Z,100449.09
2022-12-13T11:16:25.374Z,100444.31
2022-12-13T11:18:59.334Z,100447.28
2022-12-13T11:21:29.139Z,100441.53
2022-12-13T11:24:01.930Z,100441.41
2022-12-13T11:26:32.052Z,100454.03
2022-12-13T11:29:23.291Z,100450.50
2022-12-13T11:32:14.980Z,100454.09
2022-12-13T11:34:57.385Z,100435.84
2022-12-13T11:37:30.236Z,100446.53
2022-12-13T11:40:16.568Z,100448.03
2022-12-13T11:42:46.957Z,100440.78
2022-12-13T11:45:35.605Z,100456.19
2022-12-13T11:48:08.509Z,100461.00
2022-12-13T11:51:04.863Z,100459.59
2022-12-13T11:53:44.407Z,100459.59
2022-12-13T11:56:24.765Z,100462.59
2022-12-13T11:59:22.384Z,100471.47
2022-12-13T12:02:16.764Z,100467.28
2022-12-13T12:04:58.126Z,100463.88
2022-12-13T12:07:44.626Z,100465.78
2022-12-13T12:10:49.750Z,100469.97
2022-12-13T12:13:33.782Z,100465.91
2022-12-13T12:16:28.200Z,100463.88
2022-12-13T12:18:54.943Z,100463.41
2022-12-13T12:21:49.198Z,100463.00
2022-12-13T12:24:35.771Z,100469.66
2022-12-13T12:27:22.476Z,100461.81
2022-12-13T12:30:00.732Z,100465.78
2022-12-13T12:32:41.607Z,100475.72
2022-12-13T12:35:25.515Z,100481.84
2022-12-13T12:37:59.389Z,100471.25
2022-12-13T12:41:17.869Z,100480.88
2022-12-13T12:43:42.921Z,100474.53
2022-12-13T12:46:52.239Z,100471.13
2022-12-13T12:49:34.515Z,100476.25
2022-12-13T12:52:27.179Z,100475.72
2022-12-13T12:55:29.636Z,100478.22
2022-12-13T12:58:05.393Z,100480.03
2022-12-13T13:00:42.832Z,100486.66
2022-12-13T13:03:23.191Z,100482.28
2022-12-13T13:06:07.886Z,100488.81
2022-12-13T13:08:39.766Z,100490.63
2022-12-13T13:11:23.819Z,100484.41
2022-12-13T13:13:57.511Z,100491.59
2022-12-13T13:16:31.841Z,100483.78
2022-12-13T13:19:30.387Z,100482.81
2022-12-13T13:22:01.978Z,100491.47
2022-12-13T13:24:32.025Z,100489.44
2022-12-13T13:27:15.304Z,100495.53
2022-12-13T13:29:43.254Z,100494.19
2022-12-13T13:32:10.887Z,100495.81
2022-12-13T13:34:48.045Z,100508.41
2022-12-13T13:37:22.968Z,100509.03
2022-12-13T13:39:58.421Z,100512.66
2022-12-13T13:42:29.870Z,100517.47
2022-12-13T13:45:18.645Z,100512.66
2022-12-13T13:48:34.948Z,100513.06
2022-12-13T13:52:08.531Z,100515.94
2022-12-13T13:54:52.206Z,100520.53
2022-12-13T14:01:14.206Z,100523.69
2022-12-13T14:04:08.247Z,100521.28
2022-12-13T14:07:12.763Z,100534.84
2022-12-13T14:09:57.628Z,100524.81
2022-12-13T14:13:05.444Z,100531.47
2022-12-13T14:16:09.449Z,100532.75
2022-12-13T14:19:10.562Z,100548.66
2022-12-13T14:21:54.588Z,100535.97
2022-12-13T14:24:48.999Z,100534.66
2022-12-13T14:27:49.034Z,100534.75
2022-12-13T14:30:27.910Z,100545.34
2022-12-13T14:32:56.218Z,100534.44
2022-12-13T14:35:31.536Z,100549.88
2022-12-13T14:38:03.908Z,100544.25
2022-12-13T14:40:36.837Z,100546.28
2022-12-13T14:43:03.894Z,100547.38
2022-12-13T14:45:35.980Z,100554.00
2022-12-13T14:48:06.258Z,100547.81
2022-12-13T14:50:35.097Z,100539.47
2022-12-13T14:53:04.549Z,100539.78
2022-12-13T14:55:36.775Z,100541.19
2022-12-13T14:58:16.503Z,100552.28
2022-12-13T15:00:45.159Z,100539.88
2022-12-13T15:03:21.531Z,100546.28
2022-12-13T15:05:56.755Z,100554.28
2022-12-13T15:08:23.967Z,100561.91
2022-12-13T15:10:57.539Z,100558.66
2022-12-13T15:13:35.636Z,100558.97
2022-12-13T15:16:10.311Z,100559.25
2022-12-13T15:18:40.601Z,100558.88
2022-12-13T15:21:22.791Z,100551.44
2022-12-13T15:23:53.576Z,100563.44
2022-12-13T15:26:29.720Z,100563.06
2022-12-13T15:29:01.392Z,100570.22
2022-12-13T15:31:39.836Z,100570.78
2022-12-13T15:34:29.876Z,100565.53
2022-12-13T15:37:01.159Z,100573.63
2022-12-13T15:39:30.243Z,100566.97
2022-12-13T15:41:57.501Z,100569.66
2022-12-13T15:44:30.674Z,100560.72
2022-12-13T15:47:07.983Z,100562.44
2022-12-13T15:49:43.760Z,100561.03
2022-12-13T15:52:13.682Z,100571.31
2022-12-13T15:54:41.451Z,100570.47
2022-12-13T15:57:29.643Z,100576.78
2022-12-13T16:00:19.977Z,100566.09
2022-12-13T16:03:12.864Z,100584.41
2022-12-13T16:05:51.476Z,100585.44
2022-12-13T16:08:24.124Z,100576.19
2022-12-13T16:10:52.379Z,100572.19
2022-12-13T16:13:28.961Z,100575.81
2022-12-13T16:16:09.758Z,100568.28
2022-12-13T16:18:45.945Z,100575.63
2022-12-13T16:21:13.592Z,100576.38
2022-12-13T16:23:40.140Z,100558.28
2022-12-13T16:26:19.819Z,100581.72
2022-12-13T16:28:46.305Z,100581.25
2022-12-13T16:31:24.319Z,100585.72
2022-12-13T16:33:51.680Z,100583.63
2022-12-13T16:36:18.270Z,100588.88
2022-12-13T16:38:45.100Z,100593.16
2022-12-13T16:41:11.760Z,100601.16
2022-12-13T16:43:48.800Z,100597.34
2022-12-13T16:47:17.331Z,100587.13
2022-12-13T16:49:14.879Z,100591.50
2022-12-13T16:51:46.476Z,100591.06
2022-12-13T16:54:14.683Z,100593.22
2022-12-13T16:56:40.955Z,100593.41
2022-12-13T16:59:13.221Z,100591.97
2022-12-13T17:01:39.569Z,100588.66
2022-12-13T17:04:15.004Z,100579.22
2022-12-13T17:06:45.132Z,100582.75
2022-12-13T17:09:12.893Z,100573.00
2022-12-13T17:11:39.076Z,100580.91
2022-12-13T17:14:06.290Z,100578.16
2022-12-13T17:16:32.777Z,100584.84
2022-12-13T17:18:59.364Z,100586.19
2022-12-13T17:21:26.443Z,100571.31
2022-12-13T17:23:57.231Z,100582.88
2022-12-13T17:26:24.084Z,100580.50
2022-12-13T17:28:50.726Z,100570.25
2022-12-13T17:31:17.990Z,100580.97
2022-12-13T17:33:45.213Z,100578.09
2022-12-13T17:36:13.484Z,100584.19
2022-12-13T17:38:47.002Z,100586.94
2022-12-13T17:41:15.048Z,100581.09
2022-12-13T17:43:43.227Z,100586.06
2022-12-13T17:46:14.463Z,100586.66
2022-12-13T17:48:42.088Z,100583.78
2022-12-13T17:51:10.220Z,100596.19
2022-12-13T17:53:39.084Z,100589.81
2022-12-13T17:56:07.834Z,100594.91
2022-12-13T17:58:34.909Z,100589.38
2022-12-13T18:01:14.903Z,100599.13
2022-12-13T18:03:42.030Z,100602.66
2022-12-13T18:06:08.770Z,100599.66
2022-12-13T18:08:37.184Z,100600.59
2022-12-13T18:13:54.665Z,100588.44
2022-12-13T18:16:24.433Z,100597.03
2022-12-13T18:18:56.484Z,100604.59
2022-12-13T18:21:24.650Z,100607.13
2022-12-13T18:23:55.782Z,100610.47
2022-12-13T18:26:23.736Z,100608.03
2022-12-13T18:28:50.748Z,100614.38
2022-12-13T18:31:20.424Z,100597.97
2022-12-13T18:33:48.914Z,100611.56
2022-12-13T18:36:16.865Z,100613.97
2022-12-13T18:38:44.219Z,100612.88
2022-12-13T18:41:16.531Z,100619.56
2022-12-13T18:43:45.115Z,100616.16
2022-12-13T18:46:13.592Z,100627.44
2022-12-13T18:48:40.968Z,100622.19
2022-12-13T18:51:09.946Z,100620.38
2022-12-13T18:53:38.480Z,100622.59
2022-12-13T18:56:10.435Z,100617.44
2022-12-13T18:58:41.424Z,100624.03
2022-12-13T19:01:11.264Z,100626.47
2022-12-13T19:03:38.642Z,100623.09
2022-12-13T19:06:06.846Z,100630.59
2022-12-13T19:08:35.799Z,100633.34
2022-12-13T19:11:03.422Z,100632.56
2022-12-13T19:13:32.265Z,100628.72
2022-12-13T19:16:08.977Z,100630.25
2022-12-13T19:18:39.494Z,100634.97
2022-12-13T19:21:09.842Z,100630.56
2022-12-13T19:23:36.941Z,100627.13
2022-12-13T19:26:08.849Z,100623.94
2022-12-13T19:28:37.669Z,100625.03
2022-12-13T19:31:09.360Z,100625.91
2022-12-13T19:33:36.400Z,100616.97
2022-12-13T19:36:03.689Z,100616.28
2022-12-13T19:38:30.660Z,100623.94
2022-12-13T19:40:57.294Z,100626.78
2022-12-13T19:43:24.658Z,100619.75
2022-12-13T19:45:51.488Z,100622.31
2022-12-13T19:48:18.504Z,100613.22
2022-12-13T19:50:45.045Z,100612.13
2022-12-13T19:53:12.851Z,100617.09
2022-12-13T19:55:44.801Z,100613.16
2022-12-13T19:58:11.864Z,100620.19
2022-12-13T20:00:38.489Z,100610.41
2022-12-13T20:03:05.902Z,100617.81
2022-12-13T20:05:32.697Z,100621.66
2022-12-13T20:07:59.431Z,100623.84
2022-12-13T20:10:26.127Z,100629.19
2022-12-13T20:12:53.276Z,100619.94
2022-12-13T20:15:22.259Z,100618.03
2022-12-13T20:17:49.176Z,100618.72
2022-12-13T20:20:15.932Z,100619.75
2022-12-13T20:22:42.890Z,100625.75
2022-12-13T20:25:09.908Z,100638.50
2022-12-13T20:27:36.613Z,100621.03
2022-12-13T20:30:04.526Z,100627.25
2022-12-13T20:32:32.654Z,100616.09
2022-12-13T20:34:59.282Z,100626.47
2022-12-13T20:37:29.508Z,100629.84
2022-12-13T20:39:56.211Z,100630.56
2022-12-13T20:42:22.915Z,100622.75
2022-12-13T20:44:50.337Z,100616.53
2022-12-13T20:47:17.199Z,100626.13
2022-12-13T20:49:43.958Z,100621.31
2022-12-13T20:52:14.959Z,100624.84
2022-12-13T20:54:41.204Z,100629.03
2022-12-13T20:57:08.044Z,100629.03
2022-12-13T20:59:36.165Z,100630.41
2022-12-13T21:02:05.395Z,100628.78
2022-12-13T21:04:33.157Z,100626.91
2022-12-13T21:07:01.890Z,100635.06
2022-12-13T21:09:28.648Z,100630.31
2022-12-13T21:11:55.453Z,100638.31
2022-12-13T21:14:25.374Z,100624.84
2022-12-13T21:17:04.185Z,100628.25
2022-12-13T21:19:39.887Z,100630.66
2022-12-13T21:22:07.131Z,100635.66
2022-12-13T21:24:33.513Z,100634.69
2022-12-13T21:27:00.114Z,100622.16
2022-12-13T21:29:26.939Z,100627.63
2022-12-13T21:31:54.008Z,100631.44
2022-12-13T21:34:21.486Z,100633.31
2022-12-13T21:36:51.979Z,100632.22
2022-12-13T21:39:27.183Z,100638.50
2022-12-13T21:41:54.766Z,100630.53
2022-12-13T21:44:21.716Z,100631.78
2022-12-13T21:49:35.882Z,100627.31
2022-12-13T21:52:05.989Z,100627.84
2022-12-13T21:54:32.481Z,100622.16
2022-12-13T21:57:17.601Z,100623.13
2022-12-13T21:59:44.296Z,100612.06
2022-12-13T22:02:17.399Z,100608.28
2022-12-13T22:04:51.369Z,100622.69
2022-12-13T22:07:29.783Z,100611.50
2022-12-13T22:09:57.611Z,100612.59
2022-12-13T22:12:28.580Z,100613.94
2022-12-13T22:14:55.138Z,100617.19
2022-12-13T22:17:24.884Z,100611.31
2022-12-13T22:19:54.482Z,100613.41
2022-12-13T22:22:23.094Z,100610.41
2022-12-13T22:24:53.503Z,100601.84
2022-12-13T22:27:23.471Z,100601.97
2022-12-13T22:29:57.336Z,100599.50
2022-12-13T22:32:26.211Z,100599.75
2022-12-13T22:34:54.713Z,100599.28
2022-12-13T22:37:21.647Z,100593.53
2022-12-13T22:39:47.891Z,100596.06
2022-12-13T22:42:14.971Z,100590.69
2022-12-13T22:44:41.162Z,100594.28
2022-12-13T22:47:07.556Z,100589.69
2022-12-13T22:49:33.923Z,100586.13
2022-12-13T22:52:00.566Z,100581.84
2022-12-13T22:54:26.666Z,100579.59
2022-12-13T22:56:53.648Z,100571.38
2022-12-13T22:59:19.832Z,100566.81
2022-12-13T23:01:49.334Z,100576.56
2022-12-13T23:04:15.733Z,100578.81
2022-12-13T23:06:42.337Z,100581.69
2022-12-13T23:09:13.449Z,100570.03
2022-12-13T23:11:59.210Z,100573.84
2022-12-13T23:14:30.536Z,100575.41
2022-12-13T23:16:57.281Z,100565.16
2022-12-13T23:22:10.538Z,100578.72
2022-12-13T23:24:36.730Z,100578.13
2022-12-13T23:27:03.149Z,100572.66
2022-12-13T23:29:29.266Z,100572.03
2022-12-13T23:31:55.675Z,100571.63
2022-12-13T23:34:21.721Z,100574.38
2022-12-13T23:36:48.089Z,100562.75
2022-12-13T23:39:14.218Z,100573.69
2022-12-13T23:41:40.924Z,100568.66
2022-12-13T23:44:07.077Z,100580.41
2022-12-13T23:46:35.832Z,100572.13
2022-12-13T23:49:04.730Z,100567.25
2022-12-13T23:51:32.991Z,100564.28
2022-12-13T23:53:59.560Z,100560.91
2022-12-13T23:56:26.026Z,100565.53
2022-12-13T23:58:52.157Z,100570.00
